createdAt,value
2024-04-02T00:00:34.622Z,0.00
2024-04-02T00:01:34.618Z,0.00
2024-04-02T00:02:34.589Z,0.00
2024-04-02T00:03:37.768Z,0.00
2024-04-02T00:04:34.563Z,0.00
2024-04-02T00:05:34.580Z,0.00
2024-04-02T00:06:34.516Z,0.00
2024-04-02T00:07:34.545Z,0.00
2024-04-02T00:08:34.491Z,0.00
2024-04-02T00:09:34.551Z,0.00
2024-04-02T00:10:34.513Z,0.00
2024-04-02T00:11:34.476Z,0.00
2024-04-02T00:12:34.457Z,0.00
2024-04-02T00:13:34.443Z,0.00
2024-04-02T00:14:34.458Z,0.00
2024-04-02T00:15:34.456Z,0.00
2024-04-02T00:16:34.450Z,0.00
2024-04-02T00:17:34.427Z,0.00
2024-04-02T00:18:34.403Z,0.00
2024-04-02T00:19:34.364Z,0.00
2024-04-02T00:20:34.378Z,0.00
2024-04-02T00:21:34.347Z,0.00
2024-04-02T00:22:34.332Z,0.00
2024-04-02T00:23:34.296Z,0.00
2024-04-02T00:24:34.353Z,0.00
2024-04-02T00:25:34.390Z,0.00
2024-04-02T00:26:34.324Z,0.00
2024-04-02T00:27:34.262Z,0.00
2024-04-02T00:28:34.265Z,0.00
2024-04-02T00:29:34.293Z,0.00
2024-04-02T00:30:34.261Z,0.00
2024-04-02T00:31:34.235Z,0.00
2024-04-02T00:32:34.232Z,0.00
2024-04-02T00:33:34.398Z,0.00
2024-04-02T00:34:34.189Z,0.00
2024-04-02T00:35:34.226Z,0.00
2024-04-02T00:36:34.198Z,0.00
2024-04-02T00:37:34.157Z,0.00
2024-04-02T00:38:34.146Z,0.00
2024-04-02T00:39:34.123Z,0.00
2024-04-02T00:40:34.097Z,0.00
2024-04-02T00:41:34.212Z,0.00
2024-04-02T00:42:34.094Z,0.00
2024-04-02T00:43:34.106Z,0.00
2024-04-02T00:44:34.078Z,0.00
2024-04-02T00:45:34.057Z,0.00
2024-04-02T00:46:34.066Z,0.00
2024-04-02T00:47:34.067Z,0.00
2024-04-02T00:48:34.007Z,0.00
2024-04-02T00:49:37.135Z,0.00
2024-04-02T00:50:34.005Z,0.00
2024-04-02T00:51:33.990Z,0.00
2024-04-02T00:52:33.991Z,0.00
2024-04-02T00:53:34.001Z,0.00
2024-04-02T00:54:34.034Z,0.00
2024-04-02T00:55:33.950Z,0.00
2024-04-02T00:56:33.899Z,0.00
2024-04-02T00:57:34.952Z,0.00
2024-04-02T00:58:33.890Z,0.00
2024-04-02T00:59:33.902Z,0.00
2024-04-02T01:00:33.906Z,0.00
2024-04-02T01:01:33.860Z,0.00
2024-04-02T01:02:33.855Z,0.00
2024-04-02T01:03:33.834Z,0.00
2024-04-02T01:04:33.854Z,0.00
2024-04-02T01:05:33.804Z,0.00
2024-04-02T01:06:33.801Z,0.00
2024-04-02T01:07:33.788Z,0.00
2024-04-02T01:08:33.813Z,0.00
2024-04-02T01:09:33.761Z,0.00
2024-04-02T01:10:33.728Z,0.00
2024-04-02T01:11:33.708Z,0.00
2024-04-02T01:12:33.704Z,0.00
2024-04-02T01:13:33.708Z,0.00
2024-04-02T01:14:33.744Z,0.00
2024-04-02T01:15:33.693Z,0.00
2024-04-02T01:16:33.670Z,0.00
2024-04-02T01:17:33.656Z,0.00
2024-04-02T01:18:33.643Z,0.00
2024-04-02T01:19:33.641Z,0.00
2024-04-02T01:20:33.647Z,0.00
2024-04-02T01:21:33.606Z,0.00
2024-04-02T01:22:33.581Z,0.00
2024-04-02T01:23:33.554Z,0.00
2024-04-02T01:24:33.542Z,0.00
2024-04-02T01:25:33.561Z,0.00
2024-04-02T01:26:33.579Z,0.00
2024-04-02T01:27:33.525Z,0.00
2024-04-02T01:28:33.506Z,0.00
2024-04-02T01:29:33.498Z,0.00
2024-04-02T01:30:33.482Z,0.00
2024-04-02T01:31:33.515Z,0.00
2024-04-02T01:32:33.496Z,0.00
2024-04-02T01:33:33.489Z,0.00
2024-04-02T01:34:33.456Z,0.00
2024-04-02T01:35:33.419Z,0.00
2024-04-02T01:36:33.422Z,0.00
2024-04-02T01:37:33.415Z,0.00
2024-04-02T01:38:33.391Z,0.00
2024-04-02T01:39:33.414Z,0.00
2024-04-02T01:40:33.406Z,0.00
2024-04-02T01:41:33.421Z,0.00
2024-04-02T01:42:33.377Z,0.00
2024-04-02T01:43:33.373Z,0.00
2024-04-02T01:44:33.358Z,0.00
2024-04-02T01:45:33.343Z,0.00
2024-04-02T01:46:33.305Z,0.00
2024-04-02T01:47:33.313Z,0.00
2024-04-02T01:48:33.272Z,0.00
2024-04-02T01:49:33.282Z,0.00
2024-04-02T01:50:33.234Z,0.00
2024-04-02T01:51:33.233Z,0.00
2024-04-02T01:52:33.232Z,0.00
2024-04-02T01:53:33.232Z,0.00
2024-04-02T01:54:33.214Z,0.00
2024-04-02T01:55:33.226Z,0.00
2024-04-02T01:56:33.197Z,0.00
2024-04-02T01:57:33.227Z,0.00
2024-04-02T01:58:33.177Z,0.00
2024-04-02T01:59:33.172Z,0.00
2024-04-02T02:00:33.167Z,0.00
2024-04-02T02:01:33.122Z,0.00
2024-04-02T02:02:33.146Z,0.00
2024-04-02T02:03:33.103Z,0.00
2024-04-02T02:04:33.110Z,0.00
2024-04-02T02:05:33.061Z,0.00
2024-04-02T02:06:33.044Z,0.00
2024-04-02T02:07:33.039Z,0.00
2024-04-02T02:08:33.028Z,0.00
2024-04-02T02:09:33.022Z,0.00
2024-04-02T02:10:32.991Z,0.00
2024-04-02T02:11:32.998Z,0.00
2024-04-02T02:12:32.946Z,0.00
2024-04-02T02:13:33.046Z,0.00
2024-04-02T02:14:32.956Z,0.00
2024-04-02T02:15:32.973Z,0.00
2024-04-02T02:16:32.921Z,0.00
2024-04-02T02:17:32.950Z,0.00
2024-04-02T02:18:32.907Z,0.00
2024-04-02T02:19:32.906Z,0.00
2024-04-02T02:20:32.886Z,0.00
2024-04-02T02:21:32.871Z,0.00
2024-04-02T02:22:32.850Z,0.00
2024-04-02T02:23:32.850Z,0.00
2024-04-02T02:24:32.824Z,0.00
2024-04-02T02:25:32.825Z,0.00
2024-04-02T02:26:32.824Z,0.00
2024-04-02T02:27:32.912Z,0.00
2024-04-02T02:28:32.749Z,0.00
2024-04-02T02:29:32.752Z,0.00
2024-04-02T02:30:32.729Z,0.00
2024-04-02T02:31:32.711Z,0.00
2024-04-02T02:32:32.770Z,0.00
2024-04-02T02:33:32.736Z,0.00
2024-04-02T02:34:32.673Z,0.00
2024-04-02T02:35:32.707Z,0.00
2024-04-02T02:36:40.379Z,0.00
2024-04-02T02:37:40.385Z,0.00
2024-04-02T02:38:32.681Z,0.00
2024-04-02T02:39:32.620Z,0.00
2024-04-02T02:40:32.634Z,0.00
2024-04-02T02:41:32.631Z,0.00
2024-04-02T02:42:32.598Z,0.00
2024-04-02T02:43:32.576Z,0.00
2024-04-02T02:44:32.590Z,0.00
2024-04-02T02:45:32.573Z,0.00
2024-04-02T02:46:32.550Z,0.00
2024-04-02T02:47:32.567Z,0.00
2024-04-02T02:48:32.509Z,0.00
2024-04-02T02:49:32.496Z,0.00
2024-04-02T02:50:32.506Z,0.00
2024-04-02T02:51:32.526Z,0.00
2024-04-02T02:52:32.460Z,0.00
2024-04-02T02:53:32.462Z,0.00
2024-04-02T02:54:32.440Z,0.00
2024-04-02T02:55:32.436Z,0.00
2024-04-02T02:56:32.434Z,0.00
2024-04-02T02:57:32.456Z,0.00
2024-04-02T02:58:32.431Z,0.00
2024-04-02T02:59:32.405Z,0.00
2024-04-02T03:00:32.524Z,0.00
2024-04-02T03:01:32.378Z,0.00
2024-04-02T03:02:32.334Z,0.00
2024-04-02T03:03:32.354Z,0.00
2024-04-02T03:04:32.366Z,0.00
2024-04-02T03:05:32.341Z,0.00
2024-04-02T03:06:32.323Z,0.00
2024-04-02T03:07:32.312Z,0.00
2024-04-02T03:08:32.288Z,0.00
2024-04-02T03:09:32.290Z,0.00
2024-04-02T03:10:32.268Z,0.00
2024-04-02T03:11:32.252Z,0.00
2024-04-02T03:12:32.235Z,0.00
2024-04-02T03:13:32.214Z,0.00
2024-04-02T03:14:32.232Z,0.00
2024-04-02T03:15:32.189Z,0.00
2024-04-02T03:16:32.193Z,0.00
2024-04-02T03:17:32.174Z,0.00
2024-04-02T03:18:32.158Z,0.00
2024-04-02T03:19:32.165Z,0.00
2024-04-02T03:20:32.160Z,0.00
2024-04-02T03:21:32.125Z,0.00
2024-04-02T03:22:32.110Z,0.00
2024-04-02T03:23:32.082Z,0.00
2024-04-02T03:24:32.091Z,0.00
2024-04-02T03:25:32.096Z,0.00
2024-04-02T03:26:32.092Z,0.00
2024-04-02T03:27:32.044Z,0.00
2024-04-02T03:28:32.036Z,0.00
2024-04-02T03:29:32.034Z,0.00
2024-04-02T03:30:32.008Z,0.00
2024-04-02T03:31:32.042Z,0.00
2024-04-02T03:32:32.047Z,0.00
2024-04-02T03:33:31.953Z,0.00
2024-04-02T03:34:31.938Z,0.00
2024-04-02T03:35:31.952Z,0.00
2024-04-02T03:36:31.948Z,0.00
2024-04-02T03:37:32.104Z,0.00
2024-04-02T03:38:31.890Z,0.00
2024-04-02T03:39:35.374Z,0.00
2024-04-02T03:40:31.885Z,0.00
2024-04-02T03:41:31.897Z,0.00
2024-04-02T03:42:31.859Z,0.00
2024-04-02T03:43:31.886Z,0.00
2024-04-02T03:44:31.826Z,0.00
2024-04-02T03:45:31.821Z,0.00
2024-04-02T03:46:31.802Z,0.00
2024-04-02T03:47:31.864Z,0.00
2024-04-02T03:48:31.782Z,0.00
2024-04-02T03:49:31.784Z,0.00
2024-04-02T03:50:31.810Z,0.00
2024-04-02T03:51:31.789Z,0.00
2024-04-02T03:52:31.745Z,0.00
2024-04-02T03:53:31.724Z,0.00
2024-04-02T03:54:31.761Z,0.00
2024-04-02T03:55:31.675Z,0.00
2024-04-02T03:56:31.673Z,0.00
2024-04-02T03:57:31.739Z,0.00
2024-04-02T03:58:31.662Z,0.00
2024-04-02T03:59:31.636Z,0.00
2024-04-02T04:00:31.695Z,0.00
2024-04-02T04:01:31.612Z,0.00
2024-04-02T04:02:31.610Z,0.00
2024-04-02T04:03:31.592Z,0.00
2024-04-02T04:04:31.595Z,0.00
2024-04-02T04:05:31.595Z,0.00
2024-04-02T04:06:31.598Z,0.00
2024-04-02T04:07:31.582Z,0.00
2024-04-02T04:08:31.519Z,0.00
2024-04-02T04:09:31.523Z,0.00
2024-04-02T04:10:31.558Z,0.00
2024-04-02T04:11:31.529Z,0.00
2024-04-02T04:12:31.514Z,0.00
2024-04-02T04:13:31.493Z,0.00
2024-04-02T04:14:31.458Z,0.00
2024-04-02T04:15:31.504Z,0.00
2024-04-02T04:16:31.438Z,0.00
2024-04-02T04:17:31.415Z,0.00
2024-04-02T04:18:31.408Z,0.00
2024-04-02T04:19:31.436Z,0.00
2024-04-02T04:20:31.436Z,0.00
2024-04-02T04:21:31.407Z,0.00
2024-04-02T04:22:31.338Z,0.00
2024-04-02T04:23:31.354Z,0.00
2024-04-02T04:24:31.326Z,0.00
2024-04-02T04:25:31.358Z,0.00
2024-04-02T04:26:31.310Z,0.00
2024-04-02T04:27:31.302Z,0.00
2024-04-02T04:28:31.282Z,0.00
2024-04-02T04:29:31.360Z,0.00
2024-04-02T04:30:31.262Z,0.00
2024-04-02T04:31:31.309Z,0.00
2024-04-02T04:32:31.265Z,0.00
2024-04-02T04:33:31.238Z,0.00
2024-04-02T04:34:31.212Z,0.00
2024-04-02T04:35:31.205Z,0.00
2024-04-02T04:36:31.264Z,0.00
2024-04-02T04:37:31.170Z,0.00
2024-04-02T04:38:31.183Z,4.00
2024-04-02T04:39:31.153Z,0.00
2024-04-02T04:40:31.136Z,4.00
2024-04-02T04:41:31.159Z,4.00
2024-04-02T04:42:31.130Z,4.00
2024-04-02T04:43:31.131Z,4.00
2024-04-02T04:44:31.113Z,4.00
2024-04-02T04:45:31.087Z,4.00
2024-04-02T04:46:31.086Z,8.00
2024-04-02T04:47:31.106Z,8.00
2024-04-02T04:48:31.038Z,8.00
2024-04-02T04:49:31.007Z,8.00
2024-04-02T04:50:31.005Z,12.00
2024-04-02T04:51:31.142Z,12.00
2024-04-02T04:52:30.983Z,12.00
2024-04-02T04:53:30.975Z,12.00
2024-04-02T04:54:30.971Z,12.00
2024-04-02T04:55:31.014Z,12.00
2024-04-02T04:56:30.949Z,12.00
2024-04-02T04:57:30.937Z,12.00
2024-04-02T04:58:30.918Z,16.00
2024-04-02T04:59:30.966Z,16.00
2024-04-02T05:00:30.906Z,20.00
2024-04-02T05:01:30.894Z,24.00
2024-04-02T05:02:30.878Z,24.00
2024-04-02T05:03:30.924Z,28.00
2024-04-02T05:04:30.819Z,36.00
2024-04-02T05:05:30.836Z,32.00
2024-04-02T05:06:30.798Z,32.00
2024-04-02T05:07:30.780Z,28.00
2024-04-02T05:08:30.790Z,32.00
2024-04-02T05:09:30.802Z,36.00
2024-04-02T05:10:30.905Z,36.00
2024-04-02T05:11:30.762Z,32.00
2024-04-02T05:12:30.764Z,32.00
2024-04-02T05:13:30.722Z,32.00
2024-04-02T05:14:30.721Z,32.00
2024-04-02T05:15:30.726Z,36.00
2024-04-02T05:16:30.700Z,48.00
2024-04-02T05:17:30.704Z,52.00
2024-04-02T05:18:30.670Z,84.00
2024-04-02T05:19:30.706Z,104.00
2024-04-02T05:20:30.648Z,100.00
2024-04-02T05:21:30.630Z,112.00
2024-04-02T05:22:30.593Z,108.00
2024-04-02T05:23:30.632Z,120.00
2024-04-02T05:24:30.575Z,132.00
2024-04-02T05:25:30.606Z,140.00
2024-04-02T05:26:30.560Z,164.00
2024-04-02T05:27:30.560Z,144.00
2024-04-02T05:28:30.517Z,144.00
2024-04-02T05:29:30.532Z,136.00
2024-04-02T05:30:30.498Z,128.00
2024-04-02T05:31:30.505Z,128.00
2024-04-02T05:32:30.471Z,148.00
2024-04-02T05:33:30.448Z,184.00
2024-04-02T05:34:30.444Z,232.00
2024-04-02T05:35:30.486Z,256.00
2024-04-02T05:36:30.453Z,244.00
2024-04-02T05:37:30.420Z,228.00
2024-04-02T05:38:30.403Z,216.00
2024-04-02T05:39:30.378Z,252.00
2024-04-02T05:40:30.386Z,268.00
2024-04-02T05:41:30.383Z,300.00
2024-04-02T05:42:38.084Z,352.00
2024-04-02T05:43:30.321Z,412.00
2024-04-02T05:44:30.310Z,372.00
2024-04-02T05:45:30.333Z,328.00
2024-04-02T05:46:30.345Z,292.00
2024-04-02T05:47:30.281Z,256.00
2024-04-02T05:48:30.325Z,228.00
2024-04-02T05:49:30.303Z,248.00
2024-04-02T05:50:30.255Z,296.00
2024-04-02T05:51:30.287Z,292.00
2024-04-02T05:52:30.239Z,316.00
2024-04-02T05:53:30.287Z,404.00
2024-04-02T05:54:30.240Z,440.00
2024-04-02T05:55:30.197Z,356.00
2024-04-02T05:56:30.205Z,404.00
2024-04-02T05:57:30.170Z,404.00
2024-04-02T05:58:30.147Z,388.00
2024-04-02T05:59:30.182Z,360.00
2024-04-02T06:00:30.131Z,372.00
2024-04-02T06:01:30.107Z,376.00
2024-04-02T06:02:30.110Z,468.00
2024-04-02T06:03:30.095Z,528.00
2024-04-02T06:04:30.247Z,600.00
2024-04-02T06:05:30.079Z,708.00
2024-04-02T06:06:30.077Z,644.00
2024-04-02T06:07:30.027Z,580.00
2024-04-02T06:08:30.041Z,628.00
2024-04-02T06:09:30.016Z,752.00
2024-04-02T06:10:29.997Z,828.00
2024-04-02T06:11:29.986Z,840.00
2024-04-02T06:12:29.976Z,856.00
2024-04-02T06:13:29.956Z,940.00
2024-04-02T06:14:29.943Z,948.00
2024-04-02T06:15:29.958Z,952.00
2024-04-02T06:16:29.957Z,876.00
2024-04-02T06:17:29.916Z,940.00
2024-04-02T06:18:29.888Z,1068.00
2024-04-02T06:19:29.900Z,1116.00
2024-04-02T06:20:29.879Z,1088.00
2024-04-02T06:21:29.864Z,1256.00
2024-04-02T06:22:29.877Z,1260.00
2024-04-02T06:23:29.833Z,1252.00
2024-04-02T06:24:29.817Z,1072.00
2024-04-02T06:25:29.937Z,1036.00
2024-04-02T06:26:29.813Z,1072.00
2024-04-02T06:27:29.882Z,1176.00
2024-04-02T06:28:29.763Z,1244.00
2024-04-02T06:29:29.738Z,1224.00
2024-04-02T06:30:29.743Z,1328.00
2024-04-02T06:31:29.714Z,1404.00
2024-04-02T06:32:29.753Z,1436.00
2024-04-02T06:33:29.728Z,1532.00
2024-04-02T06:34:29.709Z,1636.00
2024-04-02T06:35:29.644Z,1712.00
2024-04-02T06:36:29.670Z,1732.00
2024-04-02T06:37:29.668Z,1636.00
2024-04-02T06:38:29.660Z,1608.00
2024-04-02T06:39:29.655Z,1576.00
2024-04-02T06:40:29.640Z,1668.00
2024-04-02T06:41:29.644Z,1828.00
2024-04-02T06:42:29.599Z,1828.00
2024-04-02T06:43:29.582Z,1776.00
2024-04-02T06:44:29.614Z,1640.00
2024-04-02T06:45:29.547Z,1556.00
2024-04-02T06:46:29.561Z,1620.00
2024-04-02T06:47:29.568Z,1824.00
2024-04-02T06:48:29.578Z,1940.00
2024-04-02T06:49:29.579Z,1872.00
2024-04-02T06:50:29.473Z,2092.00
2024-04-02T06:51:29.499Z,2376.00
2024-04-02T06:52:29.463Z,2428.00
2024-04-02T06:53:29.447Z,2520.00
2024-04-02T06:54:29.417Z,2272.00
2024-04-02T06:55:29.413Z,2192.00
2024-04-02T06:56:29.494Z,2196.00
2024-04-02T06:57:29.379Z,2028.00
2024-04-02T06:58:29.393Z,1604.00
2024-04-02T06:59:29.365Z,1612.00
2024-04-02T07:00:29.434Z,1464.00
2024-04-02T07:01:29.303Z,1436.00
2024-04-02T07:02:29.378Z,1256.00
2024-04-02T07:03:29.282Z,1288.00
2024-04-02T07:04:29.306Z,1676.00
2024-04-02T07:05:29.236Z,2224.00
2024-04-02T07:06:29.251Z,2460.00
2024-04-02T07:07:29.213Z,2336.00
2024-04-02T07:08:29.221Z,2008.00
2024-04-02T07:09:29.171Z,1716.00
2024-04-02T07:10:29.172Z,2064.00
2024-04-02T07:11:29.216Z,2444.00
2024-04-02T07:12:29.167Z,2412.00
2024-04-02T07:13:29.188Z,2116.00
2024-04-02T07:14:29.110Z,1972.00
2024-04-02T07:15:29.102Z,1848.00
2024-04-02T07:16:29.143Z,1936.00
2024-04-02T07:17:29.162Z,2104.00
2024-04-02T07:18:29.175Z,1864.00
2024-04-02T07:19:29.064Z,1964.00
2024-04-02T07:20:29.058Z,2196.00
2024-04-02T07:21:29.038Z,2140.00
2024-04-02T07:22:36.776Z,2248.00
2024-04-02T07:23:29.046Z,2152.00
2024-04-02T07:24:29.027Z,2148.00
2024-04-02T07:25:28.964Z,2088.00
2024-04-02T07:26:28.993Z,2024.00
2024-04-02T07:27:28.992Z,2032.00
2024-04-02T07:28:28.949Z,2200.00
2024-04-02T07:29:28.907Z,2416.00
2024-04-02T07:30:28.952Z,2128.00
2024-04-02T07:31:28.938Z,1868.00
2024-04-02T07:32:29.003Z,2112.00
2024-04-02T07:33:28.854Z,2076.00
2024-04-02T07:34:28.853Z,1920.00
2024-04-02T07:35:28.799Z,2300.00
2024-04-02T07:36:28.848Z,2468.00
2024-04-02T07:37:28.807Z,2160.00
2024-04-02T07:38:28.853Z,1804.00
2024-04-02T07:39:29.338Z,1776.00
2024-04-02T07:40:28.788Z,1936.00
2024-04-02T07:41:28.735Z,1924.00
2024-04-02T07:42:28.787Z,1832.00
2024-04-02T07:43:28.771Z,2060.00
2024-04-02T07:44:28.788Z,1988.00
2024-04-02T07:45:28.707Z,2100.00
2024-04-02T07:46:28.686Z,2000.00
2024-04-02T07:47:28.702Z,1932.00
2024-04-02T07:48:28.668Z,1788.00
2024-04-02T07:49:28.683Z,1920.00
2024-04-02T07:50:28.645Z,1896.00
2024-04-02T07:51:28.647Z,1904.00
2024-04-02T07:52:28.952Z,1860.00
2024-04-02T07:53:29.688Z,1868.00
2024-04-02T07:54:28.568Z,1716.00
2024-04-02T07:55:28.555Z,1632.00
2024-04-02T07:56:28.560Z,1784.00
2024-04-02T07:57:28.532Z,1692.00
2024-04-02T07:58:28.577Z,1692.00
2024-04-02T07:59:28.499Z,1748.00
2024-04-02T08:00:28.532Z,1764.00
2024-04-02T08:01:28.507Z,1720.00
2024-04-02T08:02:28.460Z,1696.00
2024-04-02T08:03:28.429Z,1916.00
2024-04-02T08:04:28.456Z,1912.00
2024-04-02T08:05:28.409Z,1656.00
2024-04-02T08:06:28.435Z,1520.00
2024-04-02T08:07:28.370Z,1464.00
2024-04-02T08:08:28.351Z,1408.00
2024-04-02T08:09:28.354Z,1364.00
2024-04-02T08:10:28.390Z,1380.00
2024-04-02T08:11:28.346Z,1560.00
2024-04-02T08:12:28.339Z,1756.00
2024-04-02T08:13:28.287Z,1940.00
2024-04-02T08:14:28.306Z,1924.00
2024-04-02T08:15:28.293Z,1872.00
2024-04-02T08:16:28.289Z,2244.00
2024-04-02T08:17:28.287Z,2688.00
2024-04-02T08:18:28.253Z,2548.00
2024-04-02T08:19:28.331Z,2296.00
2024-04-02T08:20:28.222Z,2360.00
2024-04-02T08:21:28.214Z,2440.00
2024-04-02T08:22:28.222Z,2368.00
2024-04-02T08:23:28.202Z,2216.00
2024-04-02T08:24:28.176Z,2232.00
2024-04-02T08:25:28.147Z,2040.00
2024-04-02T08:26:28.144Z,2060.00
2024-04-02T08:27:28.556Z,1900.00
2024-04-02T08:28:28.132Z,1684.00
2024-04-02T08:29:28.117Z,1792.00
2024-04-02T08:30:28.086Z,2132.00
2024-04-02T08:31:28.072Z,2560.00
2024-04-02T08:32:28.125Z,2560.00
2024-04-02T08:33:28.006Z,2672.00
2024-04-02T08:34:28.013Z,3008.00
2024-04-02T08:35:28.054Z,3600.00
2024-04-02T08:36:27.996Z,3796.00
2024-04-02T08:37:27.960Z,3612.00
2024-04-02T08:38:28.001Z,3272.00
2024-04-02T08:39:27.945Z,3048.00
2024-04-02T08:40:28.113Z,2656.00
2024-04-02T08:41:27.936Z,2268.00
2024-04-02T08:42:29.651Z,2124.00
2024-04-02T08:43:27.897Z,2128.00
2024-04-02T08:44:27.903Z,2272.00
2024-04-02T08:45:27.853Z,2104.00
2024-04-02T08:46:27.848Z,1940.00
2024-04-02T08:47:27.890Z,2076.00
2024-04-02T08:48:27.807Z,2296.00
2024-04-02T08:49:27.846Z,2300.00
2024-04-02T08:50:27.838Z,2520.00
2024-04-02T08:51:27.766Z,2832.00
2024-04-02T08:52:27.773Z,2664.00
2024-04-02T08:53:27.804Z,2952.00
2024-04-02T08:54:27.716Z,3204.00
2024-04-02T08:55:27.798Z,2960.00
2024-04-02T08:56:27.832Z,2944.00
2024-04-02T08:57:27.659Z,2900.00
2024-04-02T08:58:27.709Z,2860.00
2024-04-02T08:59:27.656Z,2580.00
2024-04-02T09:00:27.656Z,2472.00
2024-04-02T09:01:27.687Z,2632.00
2024-04-02T09:02:27.628Z,2808.00
2024-04-02T09:03:27.598Z,2440.00
2024-04-02T09:04:27.644Z,2180.00
2024-04-02T09:05:27.625Z,2160.00
2024-04-02T09:06:27.584Z,2156.00
2024-04-02T09:07:27.546Z,2248.00
2024-04-02T09:08:27.645Z,2336.00
2024-04-02T09:09:27.524Z,2436.00
2024-04-02T09:10:27.555Z,2492.00
2024-04-02T09:11:27.522Z,2664.00
2024-04-02T09:12:27.465Z,2748.00
2024-04-02T09:13:27.435Z,2428.00
2024-04-02T09:14:27.475Z,2576.00
2024-04-02T09:15:27.449Z,2532.00
2024-04-02T09:16:27.410Z,2552.00
2024-04-02T09:17:27.524Z,2792.00
2024-04-02T09:18:27.446Z,2884.00
2024-04-02T09:19:27.409Z,3196.00
2024-04-02T09:20:27.416Z,3388.00
2024-04-02T09:21:27.324Z,3300.00
2024-04-02T09:22:27.354Z,3048.00
2024-04-02T09:23:27.345Z,3388.00
2024-04-02T09:24:27.277Z,3932.00
2024-04-02T09:25:29.041Z,4524.00
2024-04-02T09:26:27.314Z,5092.00
2024-04-02T09:27:27.245Z,5328.00
2024-04-02T09:28:27.260Z,5240.00
2024-04-02T09:29:27.229Z,5244.00
2024-04-02T09:30:27.214Z,4920.00
2024-04-02T09:31:29.579Z,4768.00
2024-04-02T09:32:27.295Z,4644.00
2024-04-02T09:33:27.160Z,4560.00
2024-04-02T09:34:27.166Z,4420.00
2024-04-02T09:35:27.155Z,4124.00
2024-04-02T09:36:27.112Z,3872.00
2024-04-02T09:37:30.040Z,3280.00
2024-04-02T09:38:27.120Z,3040.00
2024-04-02T09:39:27.068Z,2736.00
2024-04-02T09:40:27.056Z,2992.00
2024-04-02T09:41:27.096Z,3464.00
2024-04-02T09:42:27.058Z,3204.00
2024-04-02T09:43:29.224Z,3100.00
2024-04-02T09:44:27.051Z,3120.00
2024-04-02T09:45:26.989Z,3448.00
2024-04-02T09:46:26.977Z,3744.00
2024-04-02T09:47:26.961Z,4812.00
2024-04-02T09:48:26.944Z,5332.00
2024-04-02T09:49:29.271Z,5644.00
2024-04-02T09:50:27.044Z,5896.00
2024-04-02T09:51:26.887Z,6016.00
2024-04-02T09:52:26.915Z,5900.00
2024-04-02T09:53:26.897Z,5968.00
2024-04-02T09:54:26.888Z,6328.00
2024-04-02T09:55:29.581Z,6440.00
2024-04-02T09:56:26.872Z,6668.00
2024-04-02T09:57:26.808Z,6472.00
2024-04-02T09:58:26.796Z,6132.00
2024-04-02T09:59:26.783Z,5708.00
2024-04-02T10:00:26.781Z,5156.00
2024-04-02T10:01:29.552Z,5028.00
2024-04-02T10:02:26.798Z,5120.00
2024-04-02T10:03:26.754Z,4612.00
2024-04-02T10:04:26.788Z,4528.00
2024-04-02T10:05:26.736Z,4112.00
2024-04-02T10:06:34.454Z,3216.00
2024-04-02T10:07:26.698Z,2728.00
2024-04-02T10:08:26.702Z,2880.00
2024-04-02T10:09:26.638Z,2816.00
2024-04-02T10:10:26.664Z,2300.00
2024-04-02T10:11:26.599Z,2132.00
2024-04-02T10:12:26.579Z,2328.00
2024-04-02T10:13:26.601Z,2912.00
2024-04-02T10:14:26.576Z,2932.00
2024-04-02T10:15:26.520Z,2608.00
2024-04-02T10:16:26.572Z,3116.00
2024-04-02T10:17:26.563Z,4836.00
2024-04-02T10:18:26.554Z,5580.00
2024-04-02T10:19:26.514Z,6284.00
2024-04-02T10:20:26.529Z,6428.00
2024-04-02T10:21:26.518Z,5536.00
2024-04-02T10:22:26.515Z,4000.00
2024-04-02T10:23:26.494Z,3544.00
2024-04-02T10:24:26.387Z,3720.00
2024-04-02T10:25:26.533Z,4208.00
2024-04-02T10:26:26.499Z,5184.00
2024-04-02T10:27:26.368Z,5872.00
2024-04-02T10:28:26.362Z,6044.00
2024-04-02T10:29:26.360Z,6240.00
2024-04-02T10:30:26.386Z,6972.00
2024-04-02T10:31:26.315Z,6524.00
2024-04-02T10:32:26.314Z,7324.00
2024-04-02T10:33:26.271Z,6684.00
2024-04-02T10:34:26.264Z,7436.00
2024-04-02T10:35:26.241Z,5456.00
2024-04-02T10:36:26.236Z,5156.00
2024-04-02T10:37:26.257Z,4920.00
2024-04-02T10:38:26.200Z,5188.00
2024-04-02T10:39:26.233Z,5996.00
2024-04-02T10:40:26.211Z,6592.00
2024-04-02T10:41:26.189Z,6348.00
2024-04-02T10:42:26.162Z,6300.00
2024-04-02T10:43:26.117Z,6768.00
2024-04-02T10:44:26.161Z,6924.00
2024-04-02T10:45:26.094Z,6844.00
2024-04-02T10:46:26.079Z,6412.00
2024-04-02T10:47:26.107Z,6116.00
2024-04-02T10:48:26.048Z,8016.00
2024-04-02T10:49:26.032Z,6492.00
2024-04-02T10:50:26.025Z,6192.00
2024-04-02T10:51:26.038Z,5924.00
2024-04-02T10:52:26.057Z,6024.00
2024-04-02T10:53:25.979Z,6136.00
2024-04-02T10:54:25.965Z,5796.00
2024-04-02T10:55:25.966Z,6108.00
2024-04-02T10:56:25.968Z,6724.00
2024-04-02T10:57:25.971Z,6440.00
2024-04-02T10:58:25.986Z,5808.00
2024-04-02T10:59:25.940Z,5756.00
2024-04-02T11:00:25.886Z,5700.00
2024-04-02T11:01:25.914Z,5992.00
2024-04-02T11:02:25.888Z,6012.00
2024-04-02T11:03:25.855Z,5176.00
2024-04-02T11:04:25.882Z,4344.00
2024-04-02T11:05:25.862Z,5368.00
2024-04-02T11:06:25.806Z,5428.00
2024-04-02T11:07:25.817Z,5376.00
2024-04-02T11:08:25.800Z,5636.00
2024-04-02T11:09:25.841Z,5920.00
2024-04-02T11:10:25.751Z,6100.00
2024-04-02T11:11:25.738Z,6304.00
2024-04-02T11:12:25.763Z,6824.00
2024-04-02T11:13:25.743Z,7516.00
2024-04-02T11:14:25.723Z,5600.00
2024-04-02T11:15:25.701Z,4308.00
2024-04-02T11:16:25.666Z,3436.00
2024-04-02T11:17:25.674Z,3488.00
2024-04-02T11:18:28.706Z,3424.00
2024-04-02T11:19:25.646Z,3128.00
2024-04-02T11:20:25.641Z,2584.00
2024-04-02T11:21:25.640Z,2156.00
2024-04-02T11:22:25.664Z,2104.00
2024-04-02T11:23:25.618Z,2028.00
2024-04-02T11:24:25.554Z,2404.00
2024-04-02T11:25:29.880Z,3380.00
2024-04-02T11:26:25.545Z,4628.00
2024-04-02T11:27:25.517Z,5276.00
2024-04-02T11:28:25.535Z,4776.00
2024-04-02T11:29:25.570Z,5140.00
2024-04-02T11:30:28.461Z,5876.00
2024-04-02T11:31:25.511Z,6700.00
2024-04-02T11:32:25.481Z,7020.00
2024-04-02T11:33:25.428Z,7000.00
2024-04-02T11:34:25.419Z,6788.00
2024-04-02T11:35:25.468Z,6064.00
2024-04-02T11:36:27.176Z,5440.00
2024-04-02T11:37:25.378Z,5108.00
2024-04-02T11:38:25.376Z,5492.00
2024-04-02T11:39:25.426Z,5968.00
2024-04-02T11:40:25.360Z,5144.00
2024-04-02T11:41:25.328Z,5180.00
2024-04-02T11:42:25.369Z,5252.00
2024-04-02T11:43:25.290Z,5912.00
2024-04-02T11:44:25.375Z,7016.00
2024-04-02T11:45:25.275Z,6580.00
2024-04-02T11:46:25.272Z,5744.00
2024-04-02T11:47:25.286Z,5424.00
2024-04-02T11:48:25.250Z,5104.00
2024-04-02T11:49:25.246Z,4752.00
2024-04-02T11:50:25.199Z,4552.00
2024-04-02T11:51:25.184Z,3748.00
2024-04-02T11:52:25.184Z,3360.00
2024-04-02T11:53:25.158Z,4184.00
2024-04-02T11:54:25.134Z,4172.00
2024-04-02T11:55:25.141Z,3904.00
2024-04-02T11:56:25.118Z,3556.00
2024-04-02T11:57:25.193Z,3828.00
2024-04-02T11:58:25.108Z,4040.00
2024-04-02T11:59:25.070Z,4324.00
2024-04-02T12:00:25.061Z,4832.00
2024-04-02T12:01:25.053Z,5344.00
2024-04-02T12:02:25.028Z,5644.00
2024-04-02T12:03:25.041Z,5572.00
2024-04-02T12:04:25.035Z,5368.00
2024-04-02T12:05:25.003Z,4720.00
2024-04-02T12:06:24.976Z,4288.00
2024-04-02T12:07:24.970Z,4496.00
2024-04-02T12:08:25.007Z,4456.00
2024-04-02T12:09:24.969Z,4068.00
2024-04-02T12:10:24.924Z,4248.00
2024-04-02T12:11:24.928Z,4936.00
2024-04-02T12:12:24.907Z,5400.00
2024-04-02T12:13:24.918Z,5756.00
2024-04-02T12:14:24.848Z,5804.00
2024-04-02T12:15:25.320Z,5168.00
2024-04-02T12:16:24.855Z,4420.00
2024-04-02T12:17:24.832Z,3844.00
2024-04-02T12:18:24.798Z,3256.00
2024-04-02T12:19:24.782Z,2500.00
2024-04-02T12:20:24.780Z,2108.00
2024-04-02T12:21:24.960Z,1876.00
2024-04-02T12:22:24.807Z,1988.00
2024-04-02T12:23:24.734Z,2144.00
2024-04-02T12:24:24.702Z,1972.00
2024-04-02T12:25:24.720Z,2068.00
2024-04-02T12:26:24.684Z,2256.00
2024-04-02T12:27:24.769Z,2192.00
2024-04-02T12:28:24.647Z,2264.00
2024-04-02T12:29:24.646Z,3088.00
2024-04-02T12:30:24.626Z,4380.00
2024-04-02T12:31:25.692Z,3168.00
2024-04-02T12:32:24.627Z,2496.00
2024-04-02T12:33:24.575Z,2016.00
2024-04-02T12:34:24.755Z,1864.00
2024-04-02T12:35:24.582Z,1852.00